Elliot Lake, Canada
Current Conditions -  °F | °C
As of 4:43 AM on Friday 24 Oct 2014 (Local Time) from CYZE Reporting Station
Haze Haze  
Wind Chill: 32°   Ceiling: Unl
Heat Index: 32°   Visibility: 5mi
Dew Point: 32°   Wind: 0mph
Humidity: 100%   Direction: NA
Pressure: 30.02"   Gusts: NA
Location:  46.38°N, 82.65°W
Report Text: CYZE 240843Z AUTO 00000KT 5SM BR FEW002 00/00 A3002 RMK PRESFR SLP173
Loading
Personal Weather Stations






























Interactive Weather Map New forecast layout! Learn more

10-Day Weather Forecast

Advertisements
Track Severe Weather on mobile